Time;durP1;ratioP1;P1;durP2;ratioP2;P2;SDS_P1;SDS_P2;PMS_P1;PMS_P2;Temp;Humidity;BMP_temperature;BMP_pressure;BME280_temperature;BME280_humidity;BME280_pressure;Samples;Min_cycle;Max_cycle;Signal;HPM_P1;HPM_P2
2020/12/12 00:00:57;;;;;;;21.77;11.95;;;5.70;99.90;;;;;;4969650;28;20062;-75
2020/12/12 00:03:23;;;;;;;25.98;13.32;;;5.60;99.90;;;;;;4954454;29;20043;-78
2020/12/12 00:05:48;;;;;;;21.17;11.95;;;5.70;99.90;;;;;;4954579;28;20031;-77
2020/12/12 00:08:14;;;;;;;23.95;12.95;;;5.70;99.90;;;;;;4970585;28;20077;-76
2020/12/12 00:10:39;;;;;;;20.60;11.82;;;5.70;99.90;;;;;;4973797;28;20170;-78
2020/12/12 00:13:08;;;;;;;22.23;11.98;;;5.70;99.90;;;;;;4957246;28;20042;-79
2020/12/12 00:15:36;;;;;;;;;;;5.60;99.90;;;;;;4958414;28;20081;-78
2020/12/12 00:18:02;;;;;;;18.38;11.25;;;5.70;99.90;;;;;;4975131;28;19910;-76
2020/12/12 00:20:29;;;;;;;20.88;11.73;;;5.70;99.90;;;;;;4975127;28;20035;-77
2020/12/12 00:22:54;;;;;;;28.42;14.05;;;5.70;99.90;;;;;;4968323;28;20047;-81
2020/12/12 00:25:20;;;;;;;23.60;13.27;;;5.70;99.90;;;;;;4965570;28;20030;-79
2020/12/12 00:27:46;;;;;;;24.00;13.27;;;5.70;99.90;;;;;;4965501;28;20023;-79
2020/12/12 00:30:12;;;;;;;21.20;11.43;;;5.70;99.90;;;;;;4959010;28;20031;-79
2020/12/12 00:32:37;;;;;;;22.13;12.88;;;5.80;99.90;;;;;;4973904;28;20033;-79
2020/12/12 00:35:03;;;;;;;22.98;12.00;;;5.70;99.90;;;;;;4973665;28;20030;-79
2020/12/12 00:37:30;;;;;;;19.58;12.27;;;5.80;99.90;;;;;;4962981;28;20479;-79
2020/12/12 00:39:56;;;;;;;22.30;11.80;;;5.80;99.90;;;;;;4975126;28;20077;-80
2020/12/12 00:42:21;;;;;;;22.65;12.45;;;5.80;99.90;;;;;;4963576;28;20027;-80
2020/12/12 00:44:47;;;;;;;22.67;12.75;;;5.80;99.90;;;;;;4962596;28;20114;-80
2020/12/12 00:47:13;;;;;;;20.60;11.70;;;5.80;99.90;;;;;;4960413;28;20122;-79
2020/12/12 00:49:38;;;;;;;28.38;13.63;;;5.80;99.90;;;;;;4962016;28;20027;-80
2020/12/12 00:52:04;;;;;;;21.67;11.32;;;5.90;99.90;;;;;;4979035;28;20039;-79
2020/12/12 00:54:30;;;;;;;22.67;12.05;;;6.00;99.90;;;;;;4966395;28;20037;-79
2020/12/12 00:56:55;;;;;;;25.90;12.75;;;6.00;99.90;;;;;;4974374;28;20042;-79
2020/12/12 00:59:21;;;;;;;23.50;12.15;;;5.90;99.90;;;;;;4971680;29;20431;-79
2020/12/12 01:01:47;;;;;;;23.67;11.85;;;5.90;99.90;;;;;;4992957;28;20037;-80
2020/12/12 01:04:13;;;;;;;22.95;12.23;;;5.90;99.90;;;;;;4979990;28;20042;-79
2020/12/12 01:06:39;;;;;;;19.80;11.77;;;5.90;99.90;;;;;;4980277;28;20027;-78
2020/12/12 01:09:05;;;;;;;21.92;12.23;;;5.80;99.90;;;;;;4990580;28;20061;-79
2020/12/12 01:11:31;;;;;;;23.98;12.73;;;5.80;99.90;;;;;;4987646;28;20019;-79
2020/12/12 01:13:56;;;;;;;25.65;12.98;;;5.80;99.90;;;;;;4981559;28;20023;-79
2020/12/12 01:16:22;;;;;;;22.35;12.40;;;5.80;99.90;;;;;;4988096;28;20537;-79
2020/12/12 01:18:48;;;;;;;23.65;12.38;;;5.80;99.90;;;;;;4977445;28;20094;-79
2020/12/12 01:21:17;;;;;;;24.35;12.07;;;5.80;99.90;;;;;;4969281;28;20086;-78
2020/12/12 01:23:44;;;;;;;21.13;12.05;;;5.90;99.90;;;;;;4968325;28;20066;-80
2020/12/12 01:26:10;;;;;;;20.58;12.18;;;5.80;99.90;;;;;;4972094;28;20027;-79
2020/12/12 01:28:36;;;;;;;24.10;13.27;;;5.80;99.90;;;;;;4976391;28;20026;-80
2020/12/12 01:31:02;;;;;;;23.08;12.55;;;5.90;99.90;;;;;;4972745;28;20022;-80
2020/12/12 01:33:28;;;;;;;29.08;12.68;;;5.90;99.90;;;;;;4966303;28;20428;-80
2020/12/12 01:35:54;;;;;;;27.70;13.05;;;5.80;99.90;;;;;;4967030;28;20035;-80
2020/12/12 01:38:19;;;;;;;22.30;13.00;;;5.80;99.90;;;;;;4968138;28;20045;-80
2020/12/12 01:40:45;;;;;;;22.08;12.80;;;5.80;99.90;;;;;;4970640;28;20022;-79
2020/12/12 01:43:11;;;;;;;27.33;14.02;;;5.90;99.90;;;;;;4970637;28;20129;-79
2020/12/12 01:45:38;;;;;;;21.33;12.70;;;5.90;99.90;;;;;;4970636;28;20024;-79
2020/12/12 01:48:05;;;;;;;24.88;13.35;;;5.90;99.90;;;;;;4968386;28;20061;-79
2020/12/12 01:50:31;;;;;;;23.05;13.43;;;5.90;99.90;;;;;;4969342;28;20034;-79
2020/12/12 01:52:57;;;;;;;22.02;11.85;;;5.90;99.90;;;;;;4970393;28;20106;-79
2020/12/12 01:55:23;;;;;;;23.85;13.15;;;5.90;99.90;;;;;;4970422;28;20448;-79
2020/12/12 01:57:54;;;;;;;23.63;12.95;;;5.90;99.90;;;;;;4971647;28;20042;-79
2020/12/12 02:00:21;;;;;;;23.52;12.35;;;5.90;99.90;;;;;;4969493;28;20027;-79
2020/12/12 02:02:49;;;;;;;21.73;13.18;;;5.90;99.90;;;;;;4975712;28;20026;-79
2020/12/12 02:05:39;;;;;;;24.05;13.40;;;5.90;99.90;;;;;;4974988;28;20353;-79
2020/12/12 02:08:08;;;;;;;25.50;13.52;;;5.90;99.90;;;;;;4974236;28;20023;-78
2020/12/12 02:10:35;;;;;;;22.25;12.02;;;5.90;99.90;;;;;;4969397;28;20066;-78
2020/12/12 02:13:03;;;;;;;24.30;12.10;;;5.90;99.90;;;;;;4975047;28;20359;-79
2020/12/12 02:15:29;;;;;;;35.05;13.85;;;5.90;99.90;;;;;;4971752;28;20042;-80
2020/12/12 02:17:54;;;;;;;22.67;12.60;;;5.90;99.90;;;;;;4966831;28;20034;-79
2020/12/12 02:20:20;;;;;;;24.45;12.70;;;5.90;99.90;;;;;;4967790;28;20034;-79
2020/12/12 02:22:46;;;;;;;22.95;12.93;;;5.90;99.90;;;;;;4973736;28;20029;-80
2020/12/12 02:25:12;;;;;;;24.48;13.45;;;6.00;99.90;;;;;;4968615;28;20027;-80
2020/12/12 02:27:38;;;;;;;25.52;13.82;;;5.90;99.90;;;;;;4973777;28;20105;-80
2020/12/12 02:30:05;;;;;;;21.83;12.77;;;5.90;99.90;;;;;;4970374;28;20074;-79
2020/12/12 02:32:30;;;;;;;23.80;13.02;;;5.90;99.90;;;;;;5008570;28;20015;-79
2020/12/12 02:34:56;;;;;;;26.55;13.95;;;5.90;99.90;;;;;;4979396;28;20029;-78
2020/12/12 02:37:21;;;;;;;26.65;13.13;;;6.00;99.90;;;;;;4986334;28;20042;-79
2020/12/12 02:39:47;;;;;;;25.90;14.20;;;6.00;99.90;;;;;;4986770;28;20023;-78
2020/12/12 02:42:12;;;;;;;26.50;12.75;;;6.10;99.90;;;;;;4990358;28;20035;-78
2020/12/12 02:44:38;;;;;;;24.08;12.85;;;6.10;99.90;;;;;;4988768;28;20110;-78
2020/12/12 02:47:04;;;;;;;24.85;13.25;;;6.10;99.90;;;;;;4992030;28;20054;-78
2020/12/12 02:49:29;;;;;;;23.23;12.88;;;6.10;99.90;;;;;;4984228;28;20499;-79
2020/12/12 02:51:55;;;;;;;23.25;13.13;;;6.10;99.90;;;;;;4976188;28;20027;-78
2020/12/12 02:54:20;;;;;;;29.20;13.32;;;6.10;99.90;;;;;;4979880;28;20027;-78
2020/12/12 02:56:46;;;;;;;22.40;12.80;;;6.10;99.90;;;;;;4975122;28;20023;-78
2020/12/12 02:59:11;;;;;;;23.25;12.98;;;6.20;99.90;;;;;;4971697;28;20035;-80
2020/12/12 03:01:41;;;;;;;19.92;12.82;;;6.20;99.90;;;;;;4967544;28;20102;-79
2020/12/12 03:04:07;;;;;;;19.55;11.95;;;6.20;99.90;;;;;;4976330;28;20058;-79
2020/12/12 03:06:33;;;;;;;23.23;12.90;;;6.20;99.90;;;;;;4973715;28;20030;-80
2020/12/12 03:08:59;;;;;;;21.50;13.30;;;6.30;99.90;;;;;;4965422;28;20042;-79
2020/12/12 03:11:24;;;;;;;20.02;11.75;;;6.30;99.90;;;;;;4972485;28;20034;-79
2020/12/12 03:13:50;;;;;;;23.63;13.93;;;6.20;99.90;;;;;;4964485;28;20043;-79
2020/12/12 03:16:15;;;;;;;20.83;12.00;;;6.30;99.90;;;;;;4968145;28;20038;-79
2020/12/12 03:18:41;;;;;;;21.42;12.55;;;6.30;99.90;;;;;;4971470;28;20069;-80
2020/12/12 03:21:07;;;;;;;20.92;11.27;;;6.30;99.90;;;;;;4966392;28;20035;-79
2020/12/12 03:23:32;;;;;;;21.25;12.30;;;6.30;99.90;;;;;;4975766;28;20035;-78
2020/12/12 03:25:58;;;;;;;23.65;13.00;;;6.30;99.90;;;;;;4967574;28;20035;-79
2020/12/12 03:28:24;;;;;;;21.63;11.43;;;6.30;99.90;;;;;;4966254;28;20027;-81
2020/12/12 03:30:50;;;;;;;23.92;12.27;;;6.30;99.90;;;;;;4969244;28;20026;-80
2020/12/12 03:33:16;;;;;;;21.80;12.40;;;6.20;99.90;;;;;;4972537;28;20039;-80
2020/12/12 03:35:41;;;;;;;21.77;13.02;;;6.20;99.90;;;;;;4970530;28;20103;-80
2020/12/12 03:38:07;;;;;;;20.38;12.52;;;6.10;99.90;;;;;;4960980;28;20210;-81
2020/12/12 03:40:33;;;;;;;26.55;12.40;;;6.10;99.90;;;;;;4971144;28;20038;-81
2020/12/12 03:42:59;;;;;;;27.33;12.20;;;6.10;99.90;;;;;;4964350;28;20114;-81
2020/12/12 03:45:25;;;;;;;21.90;11.98;;;6.10;99.90;;;;;;4971038;28;20077;-80
2020/12/12 03:47:51;;;;;;;20.17;12.45;;;6.10;99.90;;;;;;4964867;28;20062;-81
2020/12/12 03:50:16;;;;;;;20.27;11.57;;;6.10;99.90;;;;;;4962616;28;20023;-81
2020/12/12 03:52:42;;;;;;;18.67;10.85;;;6.20;99.90;;;;;;4971848;28;20037;-80
2020/12/12 03:55:08;;;;;;;22.27;11.75;;;6.20;99.90;;;;;;4968995;28;20027;-81
2020/12/12 03:57:34;;;;;;;19.20;10.52;;;6.20;99.90;;;;;;4970934;28;20098;-81
2020/12/12 04:00:00;;;;;;;20.90;11.88;;;6.20;99.90;;;;;;4972712;28;20188;-81
2020/12/12 04:02:25;;;;;;;18.27;10.93;;;6.20;99.90;;;;;;4975427;28;20027;-81
2020/12/12 04:04:51;;;;;;;18.90;11.02;;;6.20;99.90;;;;;;4974982;28;20061;-81
2020/12/12 04:07:16;;;;;;;20.90;11.30;;;6.20;99.90;;;;;;4970179;28;20033;-81
2020/12/12 04:09:42;;;;;;;21.33;10.90;;;6.10;99.90;;;;;;4974952;28;20098;-80
2020/12/12 04:12:08;;;;;;;22.15;12.50;;;6.20;99.90;;;;;;4973233;28;20034;-80
2020/12/12 04:14:34;;;;;;;19.40;11.27;;;6.30;99.90;;;;;;4975179;28;20038;-80
2020/12/12 04:17:00;;;;;;;15.90;9.57;;;6.30;99.90;;;;;;4984252;28;20054;-80
2020/12/12 04:19:25;;;;;;;15.82;10.13;;;6.30;99.90;;;;;;4988927;28;20035;-80
2020/12/12 04:21:51;;;;;;;17.75;10.27;;;6.30;99.90;;;;;;4969688;28;20475;-81
2020/12/12 04:24:17;;;;;;;18.50;10.15;;;6.30;99.90;;;;;;4990448;28;20042;-82
2020/12/12 04:26:42;;;;;;;16.83;9.85;;;6.20;99.90;;;;;;4984634;28;20019;-80
2020/12/12 04:29:08;;;;;;;19.40;11.18;;;6.30;99.90;;;;;;4973954;28;20035;-80
2020/12/12 04:31:34;;;;;;;17.25;10.27;;;6.30;99.90;;;;;;4977220;28;20460;-81
2020/12/12 04:33:59;;;;;;;17.23;10.55;;;6.30;99.90;;;;;;4973846;28;20035;-78
2020/12/12 04:36:25;;;;;;;20.08;10.55;;;6.30;99.90;;;;;;4970783;28;20027;-81
2020/12/12 04:38:51;;;;;;;17.15;10.68;;;6.20;99.90;;;;;;4970959;28;20019;-82
2020/12/12 04:41:17;;;;;;;21.35;10.73;;;6.30;99.90;;;;;;4965850;28;20444;-81
2020/12/12 04:43:44;;;;;;;18.45;10.35;;;6.30;99.90;;;;;;4963892;28;20055;-81
2020/12/12 04:46:11;;;;;;;17.25;10.45;;;6.30;99.90;;;;;;4965590;28;20066;-81
2020/12/12 04:48:38;;;;;;;16.00;10.05;;;6.20;99.90;;;;;;4965134;28;20026;-81
2020/12/12 04:51:04;;;;;;;18.20;10.18;;;6.30;99.90;;;;;;4965854;28;20015;-81
2020/12/12 04:53:30;;;;;;;16.58;10.07;;;6.30;99.90;;;;;;4968513;28;20046;-81
2020/12/12 04:55:56;;;;;;;20.05;10.95;;;6.30;99.90;;;;;;4971487;28;20022;-81
2020/12/12 04:58:25;;;;;;;21.00;10.65;;;6.30;99.90;;;;;;4970239;28;20073;-81
2020/12/12 05:00:53;;;;;;;17.73;10.48;;;6.30;99.90;;;;;;4970910;28;20031;-81
2020/12/12 05:03:20;;;;;;;26.77;12.85;;;6.30;99.90;;;;;;4966535;28;20028;-81
2020/12/12 05:05:46;;;;;;;19.30;11.05;;;6.30;99.90;;;;;;4965062;28;20034;-81
2020/12/12 05:08:13;;;;;;;19.00;10.98;;;6.40;99.90;;;;;;4965130;28;20023;-81
2020/12/12 05:10:41;;;;;;;20.83;11.45;;;6.40;99.90;;;;;;4972517;28;20042;-80
2020/12/12 05:13:36;;;;;;;20.08;11.20;;;6.40;99.90;;;;;;4969973;28;20081;-81
2020/12/12 05:16:01;;;;;;;22.90;12.40;;;6.40;99.90;;;;;;4958705;28;20039;-80
2020/12/12 05:18:27;;;;;;;26.55;12.27;;;6.40;99.90;;;;;;4973199;28;20033;-81
2020/12/12 05:20:53;;;;;;;30.70;12.23;;;6.40;99.90;;;;;;4969901;28;20033;-81
2020/12/12 05:23:21;;;;;;;25.55;11.90;;;6.40;99.90;;;;;;4967336;28;20093;-81
2020/12/12 05:25:48;;;;;;;28.42;12.20;;;6.40;99.90;;;;;;4977739;28;20369;-81
2020/12/12 05:28:16;;;;;;;23.65;11.65;;;6.40;99.90;;;;;;4973314;28;20026;-81
2020/12/12 05:30:43;;;;;;;;;;;6.40;99.90;;;;;;4975829;28;20019;-82
2020/12/12 05:33:14;;;;;;;26.02;10.77;;;6.50;99.90;;;;;;4971466;28;19925;-81
2020/12/12 05:35:40;;;;;;;21.23;11.70;;;6.50;99.90;;;;;;4977182;28;20019;-81
2020/12/12 05:38:09;;;;;;;23.73;12.02;;;6.50;99.90;;;;;;4973715;28;20027;-81
2020/12/12 05:40:38;;;;;;;21.92;11.85;;;6.50;99.90;;;;;;4970927;28;20030;-82
2020/12/12 05:43:09;;;;;;;24.40;12.38;;;6.50;99.90;;;;;;4970437;28;20428;-81
2020/12/12 05:45:36;;;;;;;26.05;12.93;;;6.40;99.90;;;;;;4970408;28;20476;-81
2020/12/12 05:48:07;;;;;;;26.70;12.30;;;6.40;99.90;;;;;;4978082;28;20038;-82
2020/12/12 05:50:32;;;;;;;29.58;12.75;;;6.40;99.90;;;;;;4977730;28;20033;-81
2020/12/12 05:52:58;;;;;;;30.10;13.13;;;6.30;99.90;;;;;;4967859;28;20467;-80
2020/12/12 05:55:31;;;;;;;26.17;13.38;;;6.50;99.90;;;;;;4977204;28;20027;-81
2020/12/12 05:57:58;;;;;;;26.42;11.70;;;6.60;99.90;;;;;;4964330;28;20034;-82
2020/12/12 06:00:29;;;;;;;30.13;13.50;;;6.60;99.90;;;;;;4975233;28;20101;-82
2020/12/12 06:03:03;;;;;;;29.17;13.18;;;6.60;99.90;;;;;;4971073;28;20042;-82
2020/12/12 06:05:33;;;;;;;29.50;12.85;;;6.70;99.90;;;;;;4975257;28;20394;-82
2020/12/12 06:08:04;;;;;;;27.92;12.80;;;6.70;99.90;;;;;;4985049;28;20505;-82
2020/12/12 06:10:34;;;;;;;29.80;12.43;;;6.60;99.90;;;;;;4984932;28;20050;-82
2020/12/12 06:13:05;;;;;;;26.52;11.98;;;6.60;99.90;;;;;;4982586;28;20070;-81
2020/12/12 06:15:36;;;;;;;30.83;11.63;;;6.60;99.90;;;;;;4994186;28;20031;-82
2020/12/12 06:18:14;;;;;;;25.75;12.98;;;6.60;99.90;;;;;;4989665;28;20089;-81
2020/12/12 06:20:43;;;;;;;34.42;12.80;;;6.60;99.90;;;;;;4989519;28;20023;-81
2020/12/12 06:23:10;;;;;;;30.88;13.00;;;6.60;99.90;;;;;;4991669;28;20054;-81
2020/12/12 06:25:35;;;;;;;30.92;12.63;;;6.60;99.90;;;;;;4991845;28;20050;-81
2020/12/12 06:28:03;;;;;;;29.38;12.40;;;6.60;99.90;;;;;;4982317;28;20026;-82
2020/12/12 06:30:29;;;;;;;;;;;6.60;99.90;;;;;;4982810;28;20027;-80
2020/12/12 06:33:03;;;;;;;28.77;11.63;;;6.70;99.90;;;;;;4976388;28;19910;-81
2020/12/12 06:35:33;;;;;;;27.60;12.50;;;6.70;99.90;;;;;;4977562;28;20377;-81
2020/12/12 06:38:27;;;;;;;42.50;13.30;;;6.60;99.90;;;;;;4976579;28;20070;-81
2020/12/12 06:40:59;;;;;;;27.67;12.50;;;6.60;99.90;;;;;;4976587;28;20495;-81
2020/12/12 06:43:37;;;;;;;32.95;13.88;;;6.60;99.90;;;;;;4969749;28;20047;-81
2020/12/12 06:46:06;;;;;;;31.00;15.02;;;6.70;99.90;;;;;;4974768;28;20562;-82
2020/12/12 06:48:34;;;;;;;28.33;12.77;;;6.80;99.90;;;;;;4976714;28;20035;-80
2020/12/12 06:51:02;;;;;;;26.55;12.80;;;6.80;99.90;;;;;;4969294;28;20057;-81
2020/12/12 06:53:30;;;;;;;32.17;13.60;;;6.80;99.90;;;;;;4976274;28;20074;-81
2020/12/12 06:56:14;;;;;;;27.98;13.48;;;6.70;99.90;;;;;;4975400;28;20105;-81
2020/12/12 06:58:41;;;;;;;32.45;13.77;;;6.70;99.90;;;;;;4964467;28;20039;-81
2020/12/12 07:01:29;;;;;;;28.48;13.38;;;6.70;99.90;;;;;;4979946;28;20110;-82
2020/12/12 07:04:00;;;;;;;23.75;12.07;;;6.70;99.90;;;;;;4961732;28;20045;-81
2020/12/12 07:06:31;;;;;;;25.83;12.90;;;6.60;99.90;;;;;;4963628;28;20086;-82
2020/12/12 07:09:01;;;;;;;26.25;13.63;;;6.70;99.90;;;;;;4957073;28;20071;-82
2020/12/12 07:11:28;;;;;;;31.73;14.18;;;6.60;99.90;;;;;;4969736;28;20093;-81
2020/12/12 07:13:54;;;;;;;33.72;13.10;;;6.70;99.90;;;;;;4971507;28;20403;-81
2020/12/12 07:16:21;;;;;;;35.70;14.00;;;6.60;99.90;;;;;;4962798;28;20030;-81
2020/12/12 07:18:50;;;;;;;29.60;13.32;;;6.60;99.90;;;;;;4971581;28;20029;-82
2020/12/12 07:21:16;;;;;;;35.10;14.93;;;6.60;99.90;;;;;;4974527;28;20129;-82
2020/12/12 07:23:41;;;;;;;32.65;13.93;;;6.60;99.90;;;;;;4977346;28;20042;-82
2020/12/12 07:26:07;;;;;;;29.65;13.45;;;6.70;99.90;;;;;;4976941;28;20031;-82
2020/12/12 07:28:33;;;;;;;27.52;13.57;;;6.70;99.90;;;;;;4963214;28;20023;-82
2020/12/12 07:31:00;;;;;;;39.50;14.32;;;6.70;99.90;;;;;;4965910;28;20040;-81
2020/12/12 07:33:26;;;;;;;34.25;15.55;;;6.70;99.90;;;;;;4974330;28;20365;-81
2020/12/12 07:35:52;;;;;;;30.83;12.15;;;6.70;99.90;;;;;;4968359;28;20037;-81
2020/12/12 07:38:17;;;;;;;37.45;14.30;;;6.70;99.90;;;;;;4974586;28;20077;-81
2020/12/12 07:40:43;;;;;;;38.15;14.57;;;6.70;99.90;;;;;;4974222;28;20034;-82
2020/12/12 07:43:09;;;;;;;38.28;14.15;;;6.70;99.90;;;;;;4966982;28;20031;-82
2020/12/12 07:48:06;;;;;;;36.88;13.77;;;6.70;99.90;;;;;;4974065;28;20031;-82
2020/12/12 07:50:32;;;;;;;36.70;14.25;;;6.70;99.90;;;;;;4969432;28;20472;-81
2020/12/12 07:53:07;;;;;;;35.65;13.80;;;6.80;99.90;;;;;;4967329;28;20043;-82
2020/12/12 07:55:33;;;;;;;37.10;14.27;;;6.80;99.90;;;;;;4985012;28;20049;-82
2020/12/12 07:57:59;;;;;;;37.78;14.02;;;6.80;99.90;;;;;;4988548;28;20128;-82
2020/12/12 08:00:25;;;;;;;33.55;13.18;;;6.80;99.90;;;;;;4971763;28;20544;-82
2020/12/12 08:02:58;;;;;;;35.90;13.30;;;6.80;99.90;;;;;;4977849;28;20066;-82
2020/12/12 08:05:24;;;;;;;38.40;14.18;;;6.80;99.90;;;;;;4957550;28;20034;-82
2020/12/12 08:07:51;;;;;;;37.15;14.65;;;6.80;99.90;;;;;;4988036;28;20030;-82
2020/12/12 08:10:16;;;;;;;34.08;14.70;;;6.80;99.90;;;;;;4995481;28;20046;-82
2020/12/12 08:12:43;;;;;;;43.20;15.43;;;6.80;99.90;;;;;;4997137;28;20042;-82
2020/12/12 08:15:19;;;;;;;52.13;15.43;;;6.80;99.90;;;;;;4991044;28;20022;-83
2020/12/12 08:17:45;;;;;;;39.80;15.65;;;6.80;99.90;;;;;;4995677;28;20034;-82
2020/12/12 08:20:24;;;;;;;38.15;14.52;;;6.80;99.90;;;;;;4993666;28;20024;-80
2020/12/12 08:22:51;;;;;;;39.65;14.68;;;6.80;99.90;;;;;;5002569;28;20054;-81
2020/12/12 08:25:20;;;;;;;44.05;16.20;;;6.90;99.90;;;;;;4998189;28;20050;-82
2020/12/12 08:27:47;;;;;;;36.45;14.15;;;6.90;99.90;;;;;;4988467;28;20031;-82
2020/12/12 08:30:12;;;;;;;37.78;14.23;;;6.90;99.90;;;;;;4991435;28;20027;-82
2020/12/12 08:32:39;;;;;;;30.88;13.38;;;6.90;99.90;;;;;;4989095;28;20086;-82
2020/12/12 08:35:25;;;;;;;33.65;14.75;;;7.00;99.90;;;;;;4982076;28;20475;-82
2020/12/12 08:37:58;;;;;;;36.60;14.40;;;7.10;99.90;;;;;;4982443;28;20038;-82
2020/12/12 08:40:53;;;;;;;36.10;13.85;;;7.10;99.90;;;;;;4975880;28;20034;-82
2020/12/12 08:43:18;;;;;;;33.25;14.43;;;7.10;99.90;;;;;;4954660;28;20055;-81
2020/12/12 08:45:55;;;;;;;35.17;13.85;;;7.10;99.90;;;;;;4971085;28;20035;-82
2020/12/12 08:48:21;;;;;;;34.70;14.60;;;7.20;99.90;;;;;;4973771;28;20035;-83
2020/12/12 08:50:52;;;;;;;36.25;13.95;;;7.20;99.90;;;;;;4976238;28;20027;-83
2020/12/12 08:53:24;;;;;;;38.00;14.90;;;7.10;99.90;;;;;;4968839;28;20043;-82
2020/12/12 08:55:58;;;;;;;33.63;15.82;;;7.10;99.90;;;;;;4975828;28;20081;-81
2020/12/12 08:58:39;;;;;;;35.20;14.07;;;7.10;99.90;;;;;;4974622;28;20060;-81
2020/12/12 09:01:16;;;;;;;30.63;13.40;;;7.10;99.90;;;;;;4961229;28;20086;-81
2020/12/12 09:04:08;;;;;;;34.75;15.43;;;7.20;99.90;;;;;;4965170;28;20066;-81
2020/12/12 09:06:59;;;;;;;44.30;15.27;;;7.20;99.90;;;;;;4968758;28;20387;-81
2020/12/12 09:09:27;;;;;;;29.00;13.73;;;7.20;99.90;;;;;;4974267;28;20046;-80
2020/12/12 09:12:02;;;;;;;35.75;13.95;;;7.20;99.90;;;;;;4967184;28;20074;-80
2020/12/12 09:14:31;;;;;;;43.17;15.90;;;7.20;99.90;;;;;;4984301;28;20062;-82
2020/12/12 09:16:59;;;;;;;42.55;15.60;;;7.20;99.90;;;;;;4984910;28;20575;-81
2020/12/12 09:19:25;;;;;;;47.10;15.57;;;7.30;99.90;;;;;;4968400;28;20093;-82
2020/12/12 09:21:52;;;;;;;38.60;14.55;;;7.40;99.90;;;;;;4965689;28;20031;-81
2020/12/12 09:24:21;;;;;;;40.50;16.50;;;7.40;99.90;;;;;;4973391;28;20058;-82
2020/12/12 09:26:52;;;;;;;38.53;15.07;;;7.50;99.90;;;;;;4980031;28;20018;-82
2020/12/12 09:29:18;;;;;;;62.03;17.10;;;7.50;99.90;;;;;;4968420;28;20042;-83
2020/12/12 09:31:44;;;;;;;42.83;14.88;;;7.50;99.90;;;;;;4965447;28;20027;-82
2020/12/12 09:34:10;;;;;;;46.42;16.45;;;7.60;99.90;;;;;;4976306;28;20027;-82
2020/12/12 09:36:35;;;;;;;52.72;17.58;;;7.60;99.90;;;;;;4974304;28;20048;-83
2020/12/12 09:39:01;;;;;;;45.83;15.10;;;7.70;99.90;;;;;;4972764;28;20026;-82
2020/12/12 09:41:27;;;;;;;40.33;17.17;;;7.80;99.90;;;;;;4972170;28;20023;-82
2020/12/12 09:43:52;;;;;;;63.22;16.70;;;7.80;99.90;;;;;;4971730;28;20038;-81
2020/12/12 09:46:18;;;;;;;48.15;17.55;;;7.80;99.90;;;;;;4970487;28;20019;-81
2020/12/12 09:48:46;;;;;;;44.78;16.52;;;7.90;99.90;;;;;;4970600;28;20054;-79
2020/12/12 09:51:14;;;;;;;49.08;17.80;;;7.90;99.90;;;;;;4977903;28;20463;-80
2020/12/12 09:53:40;;;;;;;85.37;16.97;;;7.90;99.90;;;;;;4976063;28;20082;-81
2020/12/12 09:56:06;;;;;;;41.65;16.48;;;8.00;99.90;;;;;;4977432;28;20286;-80
2020/12/12 09:58:32;;;;;;;48.42;15.93;;;8.00;99.90;;;;;;4977956;28;20027;-82
2020/12/12 10:00:58;;;;;;;52.85;16.63;;;8.00;99.90;;;;;;4966894;28;20391;-80
2020/12/12 10:03:23;;;;;;;46.78;16.42;;;8.10;99.90;;;;;;4977942;28;20031;-79
2020/12/12 10:05:49;;;;;;;51.28;18.38;;;8.10;99.90;;;;;;4977712;28;20030;-79
2020/12/12 10:08:15;;;;;;;72.35;18.05;;;8.20;99.90;;;;;;4978094;28;20149;-78
2020/12/12 10:10:41;;;;;;;61.28;17.85;;;8.20;99.90;;;;;;4976775;28;20034;-79
2020/12/12 10:13:07;;;;;;;50.38;18.33;;;8.20;99.90;;;;;;4976567;28;20490;-79
2020/12/12 10:15:33;;;;;;;51.70;19.23;;;8.30;99.90;;;;;;4976134;28;20027;-78
2020/12/12 10:17:59;;;;;;;60.67;17.70;;;8.30;99.90;;;;;;4977259;28;20039;-80
2020/12/12 10:20:25;;;;;;;51.05;18.10;;;8.30;99.90;;;;;;4976322;28;20027;-78
2020/12/12 10:22:51;;;;;;;70.60;19.90;;;8.40;99.90;;;;;;4976616;28;20066;-78
2020/12/12 10:25:19;;;;;;;48.10;17.98;;;8.40;99.90;;;;;;4973598;28;20046;-79
2020/12/12 10:27:44;;;;;;;67.43;20.23;;;8.50;99.90;;;;;;4974854;28;20039;-79
2020/12/12 10:30:12;;;;;;;59.15;19.15;;;8.50;99.90;;;;;;4990480;28;20034;-79
2020/12/12 10:32:38;;;;;;;61.13;19.52;;;8.50;99.90;;;;;;4993107;28;20031;-79
2020/12/12 10:35:06;;;;;;;64.72;16.83;;;8.50;99.90;;;;;;4995139;28;20026;-79
2020/12/12 10:37:31;;;;;;;49.83;18.38;;;8.50;99.90;;;;;;4997547;28;20023;-78
2020/12/12 10:40:14;;;;;;;55.05;19.05;;;8.60;99.90;;;;;;4997334;28;20033;-79
2020/12/12 10:42:40;;;;;;;43.78;16.75;;;8.50;99.90;;;;;;4989419;28;20038;-80
2020/12/12 10:45:06;;;;;;;51.67;17.95;;;8.60;99.90;;;;;;4998447;28;20025;-80
2020/12/12 10:47:33;;;;;;;60.15;16.67;;;8.60;99.90;;;;;;4998780;28;20035;-79
2020/12/12 10:49:59;;;;;;;63.33;19.13;;;8.70;99.90;;;;;;4996965;28;20083;-79
2020/12/12 10:52:24;;;;;;;50.03;18.02;;;8.70;99.90;;;;;;4997303;28;20058;-77
2020/12/12 10:54:51;;;;;;;48.15;18.02;;;8.80;99.90;;;;;;4973621;28;20031;-78
2020/12/12 10:57:17;;;;;;;60.67;17.73;;;8.80;99.90;;;;;;4962737;28;20026;-79
2020/12/12 10:59:43;;;;;;;56.38;17.30;;;8.90;99.90;;;;;;4970094;28;20331;-79
2020/12/12 11:02:11;;;;;;;52.67;17.55;;;8.90;99.90;;;;;;4965824;28;20053;-79
2020/12/12 11:04:37;;;;;;;50.15;17.70;;;9.00;99.90;;;;;;4975769;28;20035;-79
2020/12/12 11:07:04;;;;;;;47.75;16.58;;;9.00;99.90;;;;;;4977902;28;20019;-80
2020/12/12 11:09:30;;;;;;;49.38;18.40;;;9.00;99.90;;;;;;4969137;28;20053;-79
2020/12/12 11:11:56;;;;;;;45.83;16.98;;;9.10;99.90;;;;;;4970307;28;20026;-78
2020/12/12 11:14:21;;;;;;;49.33;17.25;;;9.10;99.90;;;;;;4971101;28;20030;-78
2020/12/12 11:16:47;;;;;;;47.53;18.65;;;9.10;99.90;;;;;;4972653;28;20074;-78
2020/12/12 11:19:12;;;;;;;56.10;18.25;;;9.10;99.90;;;;;;4972259;28;20026;-79
2020/12/12 11:21:40;;;;;;;45.70;17.60;;;9.10;99.90;;;;;;4975539;28;20434;-79
2020/12/12 11:24:07;;;;;;;;;;;9.10;99.90;;;;;;4979664;28;20046;-78
2020/12/12 11:26:32;;;;;;;56.22;18.70;;;9.10;99.90;;;;;;4977887;28;19910;-78
2020/12/12 11:28:58;;;;;;;50.63;17.88;;;9.20;99.90;;;;;;4969966;28;20478;-78
2020/12/12 11:31:24;;;;;;;64.93;19.33;;;9.20;99.90;;;;;;4984527;28;20022;-79
2020/12/12 11:33:58;;;;;;;48.60;17.15;;;9.30;99.90;;;;;;4962602;28;20443;-79
2020/12/12 11:39:08;;;;;;;62.28;18.83;;;9.50;99.90;;;;;;4971007;28;20101;-79
2020/12/12 11:41:54;;;;;;;55.65;19.33;;;9.50;99.90;;;;;;4974488;28;20023;-79
2020/12/12 11:46:49;;;;;;;70.25;21.27;;;9.50;99.90;;;;;;4980835;28;20045;-79
2020/12/12 11:49:15;;;;;;;62.72;20.42;;;9.50;99.90;;;;;;4979989;28;20030;-79
2020/12/12 11:51:41;;;;;;;71.22;22.67;;;9.50;99.90;;;;;;4979245;28;20475;-79
2020/12/12 11:54:07;;;;;;;69.35;20.67;;;9.50;99.90;;;;;;4974057;28;20039;-79
2020/12/12 11:56:33;;;;;;;71.00;21.23;;;9.50;99.90;;;;;;4964826;28;20041;-79
2020/12/12 11:58:59;;;;;;;81.32;21.70;;;9.50;99.90;;;;;;4972524;28;20034;-79
2020/12/12 12:01:25;;;;;;;77.95;23.23;;;9.50;99.90;;;;;;4971757;28;20023;-78
2020/12/12 12:03:53;;;;;;;75.72;23.67;;;9.50;99.90;;;;;;4971452;28;20058;-79
2020/12/12 12:06:20;;;;;;;64.03;19.90;;;9.60;99.90;;;;;;4971582;28;20042;-79
2020/12/12 12:11:21;;;;;;;77.13;21.92;;;9.60;99.90;;;;;;4972296;28;20031;-78
2020/12/12 12:13:46;;;;;;;71.95;21.70;;;9.70;99.90;;;;;;4969753;28;20039;-78
2020/12/12 12:16:19;;;;;;;77.90;23.15;;;9.70;99.90;;;;;;4980938;28;20019;-78
2020/12/12 12:18:46;;;;;;;72.63;20.38;;;9.70;99.90;;;;;;4979601;28;20035;-78
2020/12/12 12:21:11;;;;;;;73.82;20.10;;;9.80;99.90;;;;;;4978249;28;20031;-78
2020/12/12 12:23:37;;;;;;;76.43;20.38;;;9.80;99.90;;;;;;4976725;28;20042;-78
2020/12/12 12:26:03;;;;;;;76.57;22.08;;;9.90;99.90;;;;;;4972117;28;20031;-79
2020/12/12 12:28:28;;;;;;;76.95;22.00;;;9.90;99.90;;;;;;4972767;28;20031;-78
2020/12/12 12:30:54;;;;;;;61.35;20.23;;;9.90;99.90;;;;;;4972154;28;20037;-78
2020/12/12 12:33:20;;;;;;;68.80;20.40;;;9.90;99.90;;;;;;4971203;28;20467;-78
2020/12/12 12:35:45;;;;;;;71.45;22.23;;;9.90;99.90;;;;;;4978621;28;20483;-78
2020/12/12 12:38:11;;;;;;;81.25;23.02;;;9.80;99.90;;;;;;4973840;28;20038;-78
2020/12/12 12:40:36;;;;;;;82.20;23.27;;;9.80;99.90;;;;;;4973012;28;20047;-78
2020/12/12 12:43:02;;;;;;;80.53;23.42;;;9.80;99.90;;;;;;4971762;28;20125;-78
2020/12/12 12:45:28;;;;;;;81.00;23.77;;;9.80;99.90;;;;;;4965901;28;20024;-78
2020/12/12 12:47:53;;;;;;;84.35;23.77;;;9.80;99.90;;;;;;4968250;28;20034;-78
2020/12/12 12:50:19;;;;;;;83.97;24.08;;;9.90;99.90;;;;;;4980286;28;20023;-78